sensor_id;sensor_type;location;lat;lon;timestamp;P1;durP1;ratioP1;P2;durP2;ratioP2
15929;SDS011;8064;51.142;4.780;2022-11-20T00:00:44;13.73;;;11.37;;
15929;SDS011;8064;51.142;4.780;2022-11-20T00:03:10;13.27;;;11.30;;
15929;SDS011;8064;51.142;4.780;2022-11-20T00:05:36;14.10;;;10.70;;
15929;SDS011;8064;51.142;4.780;2022-11-20T00:08:01;12.97;;;10.77;;
15929;SDS011;8064;51.142;4.780;2022-11-20T00:10:27;14.60;;;10.60;;
15929;SDS011;8064;51.142;4.780;2022-11-20T00:12:53;13.83;;;10.53;;
15929;SDS011;8064;51.142;4.780;2022-11-20T00:15:18;12.87;;;10.50;;
15929;SDS011;8064;51.142;4.780;2022-11-20T00:17:44;14.03;;;10.90;;
15929;SDS011;8064;51.142;4.780;2022-11-20T00:20:10;12.47;;;10.53;;
15929;SDS011;8064;51.142;4.780;2022-11-20T00:22:36;12.80;;;10.73;;
15929;SDS011;8064;51.142;4.780;2022-11-20T00:25:02;13.47;;;10.53;;
15929;SDS011;8064;51.142;4.780;2022-11-20T00:27:28;12.87;;;11.00;;
15929;SDS011;8064;51.142;4.780;2022-11-20T00:29:53;15.80;;;11.10;;
15929;SDS011;8064;51.142;4.780;2022-11-20T00:32:19;12.30;;;10.83;;
15929;SDS011;8064;51.142;4.780;2022-11-20T00:34:45;13.40;;;10.93;;
15929;SDS011;8064;51.142;4.780;2022-11-20T00:37:10;12.73;;;10.57;;
15929;SDS011;8064;51.142;4.780;2022-11-20T00:39:36;12.60;;;10.30;;
15929;SDS011;8064;51.142;4.780;2022-11-20T00:42:02;14.43;;;10.97;;
15929;SDS011;8064;51.142;4.780;2022-11-20T00:44:27;15.37;;;10.93;;
15929;SDS011;8064;51.142;4.780;2022-11-20T00:46:53;12.33;;;10.67;;
15929;SDS011;8064;51.142;4.780;2022-11-20T00:49:19;12.60;;;11.20;;
15929;SDS011;8064;51.142;4.780;2022-11-20T00:51:45;13.77;;;10.87;;
15929;SDS011;8064;51.142;4.780;2022-11-20T00:54:10;12.33;;;10.77;;
15929;SDS011;8064;51.142;4.780;2022-11-20T00:56:36;13.60;;;11.10;;
15929;SDS011;8064;51.142;4.780;2022-11-20T00:59:02;13.73;;;11.10;;
15929;SDS011;8064;51.142;4.780;2022-11-20T01:01:28;12.93;;;10.33;;
15929;SDS011;8064;51.142;4.780;2022-11-20T01:03:55;14.50;;;10.80;;
15929;SDS011;8064;51.142;4.780;2022-11-20T01:06:23;15.53;;;11.77;;
15929;SDS011;8064;51.142;4.780;2022-11-20T01:08:52;14.53;;;11.90;;
15929;SDS011;8064;51.142;4.780;2022-11-20T01:11:20;15.80;;;11.80;;
15929;SDS011;8064;51.142;4.780;2022-11-20T01:13:57;16.33;;;11.97;;
15929;SDS011;8064;51.142;4.780;2022-11-20T01:16:25;15.20;;;11.63;;
15929;SDS011;8064;51.142;4.780;2022-11-20T01:18:53;14.90;;;11.60;;
15929;SDS011;8064;51.142;4.780;2022-11-20T01:21:25;13.50;;;11.33;;
15929;SDS011;8064;51.142;4.780;2022-11-20T01:23:51;14.27;;;11.67;;
15929;SDS011;8064;51.142;4.780;2022-11-20T01:26:19;14.13;;;11.53;;
15929;SDS011;8064;51.142;4.780;2022-11-20T01:28:46;13.47;;;11.10;;
15929;SDS011;8064;51.142;4.780;2022-11-20T01:31:20;14.30;;;11.43;;
15929;SDS011;8064;51.142;4.780;2022-11-20T01:33:52;12.90;;;10.83;;
15929;SDS011;8064;51.142;4.780;2022-11-20T01:36:19;13.23;;;10.43;;
15929;SDS011;8064;51.142;4.780;2022-11-20T01:38:47;14.00;;;11.43;;
15929;SDS011;8064;51.142;4.780;2022-11-20T01:41:15;13.13;;;11.00;;
15929;SDS011;8064;51.142;4.780;2022-11-20T01:44:00;14.23;;;10.83;;
15929;SDS011;8064;51.142;4.780;2022-11-20T01:46:26;13.27;;;11.37;;
15929;SDS011;8064;51.142;4.780;2022-11-20T01:51:38;14.37;;;11.20;;
15929;SDS011;8064;51.142;4.780;2022-11-20T01:54:08;12.30;;;10.00;;
15929;SDS011;8064;51.142;4.780;2022-11-20T01:56:40;12.70;;;10.53;;
15929;SDS011;8064;51.142;4.780;2022-11-20T01:59:09;12.87;;;10.90;;
15929;SDS011;8064;51.142;4.780;2022-11-20T02:01:37;13.27;;;10.57;;
15929;SDS011;8064;51.142;4.780;2022-11-20T02:04:04;13.07;;;10.50;;
15929;SDS011;8064;51.142;4.780;2022-11-20T02:06:36;14.07;;;10.97;;
15929;SDS011;8064;51.142;4.780;2022-11-20T02:09:07;13.17;;;11.20;;
15929;SDS011;8064;51.142;4.780;2022-11-20T02:11:33;14.23;;;11.13;;
15929;SDS011;8064;51.142;4.780;2022-11-20T02:13:58;12.13;;;10.00;;
15929;SDS011;8064;51.142;4.780;2022-11-20T02:16:25;13.53;;;10.63;;
15929;SDS011;8064;51.142;4.780;2022-11-20T02:19:04;13.67;;;11.13;;
15929;SDS011;8064;51.142;4.780;2022-11-20T02:21:47;12.23;;;10.87;;
15929;SDS011;8064;51.142;4.780;2022-11-20T02:24:34;14.63;;;11.07;;
15929;SDS011;8064;51.142;4.780;2022-11-20T02:27:05;13.50;;;10.67;;
15929;SDS011;8064;51.142;4.780;2022-11-20T02:29:39;13.00;;;10.77;;
15929;SDS011;8064;51.142;4.780;2022-11-20T02:32:27;12.47;;;10.53;;
15929;SDS011;8064;51.142;4.780;2022-11-20T02:34:54;13.37;;;10.47;;
15929;SDS011;8064;51.142;4.780;2022-11-20T02:37:20;12.23;;;10.43;;
15929;SDS011;8064;51.142;4.780;2022-11-20T02:39:47;12.73;;;10.83;;
15929;SDS011;8064;51.142;4.780;2022-11-20T02:42:15;12.83;;;10.40;;
15929;SDS011;8064;51.142;4.780;2022-11-20T02:44:41;15.17;;;11.57;;
15929;SDS011;8064;51.142;4.780;2022-11-20T02:47:07;12.83;;;10.87;;
15929;SDS011;8064;51.142;4.780;2022-11-20T02:49:32;13.73;;;11.40;;
15929;SDS011;8064;51.142;4.780;2022-11-20T02:51:58;13.70;;;11.33;;
15929;SDS011;8064;51.142;4.780;2022-11-20T02:54:24;12.27;;;10.50;;
15929;SDS011;8064;51.142;4.780;2022-11-20T02:56:50;13.93;;;11.30;;
15929;SDS011;8064;51.142;4.780;2022-11-20T02:59:16;14.80;;;11.90;;
15929;SDS011;8064;51.142;4.780;2022-11-20T03:01:42;15.57;;;12.27;;
15929;SDS011;8064;51.142;4.780;2022-11-20T03:04:08;16.03;;;12.83;;
15929;SDS011;8064;51.142;4.780;2022-11-20T03:06:34;14.63;;;12.23;;
15929;SDS011;8064;51.142;4.780;2022-11-20T03:09:00;14.70;;;11.90;;
15929;SDS011;8064;51.142;4.780;2022-11-20T03:11:26;15.47;;;12.50;;
15929;SDS011;8064;51.142;4.780;2022-11-20T03:13:51;15.53;;;12.43;;
15929;SDS011;8064;51.142;4.780;2022-11-20T03:16:19;15.70;;;12.57;;
15929;SDS011;8064;51.142;4.780;2022-11-20T03:18:46;14.93;;;12.63;;
15929;SDS011;8064;51.142;4.780;2022-11-20T03:21:12;15.70;;;11.90;;
15929;SDS011;8064;51.142;4.780;2022-11-20T03:23:39;14.20;;;11.90;;
15929;SDS011;8064;51.142;4.780;2022-11-20T03:26:13;16.33;;;12.87;;
15929;SDS011;8064;51.142;4.780;2022-11-20T03:28:50;14.23;;;12.17;;
15929;SDS011;8064;51.142;4.780;2022-11-20T03:31:19;14.77;;;12.00;;
15929;SDS011;8064;51.142;4.780;2022-11-20T03:33:46;13.60;;;11.57;;
15929;SDS011;8064;51.142;4.780;2022-11-20T03:36:13;16.90;;;13.87;;
15929;SDS011;8064;51.142;4.780;2022-11-20T03:38:39;15.93;;;13.27;;
15929;SDS011;8064;51.142;4.780;2022-11-20T03:41:09;16.93;;;12.93;;
15929;SDS011;8064;51.142;4.780;2022-11-20T03:43:39;16.47;;;13.20;;
15929;SDS011;8064;51.142;4.780;2022-11-20T03:46:06;14.03;;;12.23;;
15929;SDS011;8064;51.142;4.780;2022-11-20T03:48:32;17.37;;;12.83;;
15929;SDS011;8064;51.142;4.780;2022-11-20T03:51:11;15.00;;;12.40;;
15929;SDS011;8064;51.142;4.780;2022-11-20T03:53:45;16.83;;;13.10;;
15929;SDS011;8064;51.142;4.780;2022-11-20T03:56:12;15.07;;;12.73;;
15929;SDS011;8064;51.142;4.780;2022-11-20T03:58:40;17.10;;;13.37;;
15929;SDS011;8064;51.142;4.780;2022-11-20T04:01:10;15.40;;;13.10;;
15929;SDS011;8064;51.142;4.780;2022-11-20T04:03:40;15.63;;;12.20;;
15929;SDS011;8064;51.142;4.780;2022-11-20T04:06:08;16.93;;;13.27;;
15929;SDS011;8064;51.142;4.780;2022-11-20T04:08:42;16.23;;;12.73;;
15929;SDS011;8064;51.142;4.780;2022-11-20T04:11:09;16.53;;;13.00;;
15929;SDS011;8064;51.142;4.780;2022-11-20T04:13:34;15.80;;;12.77;;
15929;SDS011;8064;51.142;4.780;2022-11-20T04:16:00;16.03;;;12.83;;
15929;SDS011;8064;51.142;4.780;2022-11-20T04:18:26;15.63;;;13.20;;
15929;SDS011;8064;51.142;4.780;2022-11-20T04:20:51;15.33;;;12.73;;
15929;SDS011;8064;51.142;4.780;2022-11-20T04:23:17;18.10;;;12.47;;
15929;SDS011;8064;51.142;4.780;2022-11-20T04:25:43;15.10;;;12.30;;
15929;SDS011;8064;51.142;4.780;2022-11-20T04:28:09;14.83;;;11.87;;
15929;SDS011;8064;51.142;4.780;2022-11-20T04:30:34;16.83;;;12.40;;
15929;SDS011;8064;51.142;4.780;2022-11-20T04:33:00;15.97;;;12.93;;
15929;SDS011;8064;51.142;4.780;2022-11-20T04:35:26;16.67;;;12.70;;
15929;SDS011;8064;51.142;4.780;2022-11-20T04:37:51;19.57;;;12.23;;
15929;SDS011;8064;51.142;4.780;2022-11-20T04:40:17;13.43;;;11.63;;
15929;SDS011;8064;51.142;4.780;2022-11-20T04:42:43;17.67;;;13.43;;
15929;SDS011;8064;51.142;4.780;2022-11-20T04:45:09;14.03;;;11.57;;
15929;SDS011;8064;51.142;4.780;2022-11-20T04:47:34;16.10;;;11.87;;
15929;SDS011;8064;51.142;4.780;2022-11-20T04:50:00;15.40;;;12.93;;
15929;SDS011;8064;51.142;4.780;2022-11-20T04:52:26;14.87;;;12.07;;
15929;SDS011;8064;51.142;4.780;2022-11-20T04:54:51;15.60;;;12.80;;
15929;SDS011;8064;51.142;4.780;2022-11-20T04:57:18;16.50;;;12.40;;
15929;SDS011;8064;51.142;4.780;2022-11-20T04:59:44;15.63;;;12.80;;
15929;SDS011;8064;51.142;4.780;2022-11-20T05:02:10;16.10;;;13.10;;
15929;SDS011;8064;51.142;4.780;2022-11-20T05:04:36;18.97;;;14.63;;
15929;SDS011;8064;51.142;4.780;2022-11-20T05:07:02;20.07;;;13.30;;
15929;SDS011;8064;51.142;4.780;2022-11-20T05:09:27;27.47;;;17.20;;
15929;SDS011;8064;51.142;4.780;2022-11-20T05:11:53;27.90;;;18.20;;
15929;SDS011;8064;51.142;4.780;2022-11-20T05:14:19;26.47;;;17.87;;
15929;SDS011;8064;51.142;4.780;2022-11-20T05:16:45;26.87;;;18.57;;
15929;SDS011;8064;51.142;4.780;2022-11-20T05:19:10;27.63;;;19.93;;
15929;SDS011;8064;51.142;4.780;2022-11-20T05:21:36;28.10;;;20.57;;
15929;SDS011;8064;51.142;4.780;2022-11-20T05:24:02;26.40;;;19.10;;
15929;SDS011;8064;51.142;4.780;2022-11-20T05:26:28;29.43;;;20.40;;
15929;SDS011;8064;51.142;4.780;2022-11-20T05:28:53;26.27;;;19.30;;
15929;SDS011;8064;51.142;4.780;2022-11-20T05:31:20;26.10;;;19.10;;
15929;SDS011;8064;51.142;4.780;2022-11-20T05:33:47;25.33;;;18.27;;
15929;SDS011;8064;51.142;4.780;2022-11-20T05:36:13;29.87;;;20.70;;
15929;SDS011;8064;51.142;4.780;2022-11-20T05:38:40;27.77;;;20.30;;
15929;SDS011;8064;51.142;4.780;2022-11-20T05:41:07;29.40;;;20.13;;
15929;SDS011;8064;51.142;4.780;2022-11-20T05:43:36;31.07;;;20.77;;
15929;SDS011;8064;51.142;4.780;2022-11-20T05:46:04;30.33;;;20.57;;
15929;SDS011;8064;51.142;4.780;2022-11-20T05:48:31;29.97;;;20.73;;
15929;SDS011;8064;51.142;4.780;2022-11-20T05:50:58;26.20;;;19.00;;
15929;SDS011;8064;51.142;4.780;2022-11-20T05:53:25;29.70;;;19.27;;
15929;SDS011;8064;51.142;4.780;2022-11-20T05:56:01;28.00;;;19.87;;
15929;SDS011;8064;51.142;4.780;2022-11-20T05:58:30;29.10;;;20.40;;
15929;SDS011;8064;51.142;4.780;2022-11-20T06:01:05;28.37;;;19.40;;
15929;SDS011;8064;51.142;4.780;2022-11-20T06:03:33;27.90;;;19.87;;
15929;SDS011;8064;51.142;4.780;2022-11-20T06:06:00;33.93;;;21.17;;
15929;SDS011;8064;51.142;4.780;2022-11-20T06:08:26;28.07;;;19.60;;
15929;SDS011;8064;51.142;4.780;2022-11-20T06:10:52;28.43;;;20.33;;
15929;SDS011;8064;51.142;4.780;2022-11-20T06:13:18;28.23;;;20.30;;
15929;SDS011;8064;51.142;4.780;2022-11-20T06:15:51;27.90;;;20.10;;
15929;SDS011;8064;51.142;4.780;2022-11-20T06:18:17;29.90;;;19.93;;
15929;SDS011;8064;51.142;4.780;2022-11-20T06:20:44;33.80;;;20.83;;
15929;SDS011;8064;51.142;4.780;2022-11-20T06:23:09;29.30;;;19.63;;
15929;SDS011;8064;51.142;4.780;2022-11-20T06:25:39;28.50;;;19.23;;
15929;SDS011;8064;51.142;4.780;2022-11-20T06:28:05;31.13;;;21.00;;
15929;SDS011;8064;51.142;4.780;2022-11-20T06:30:32;31.00;;;20.00;;
15929;SDS011;8064;51.142;4.780;2022-11-20T06:32:57;28.10;;;19.17;;
15929;SDS011;8064;51.142;4.780;2022-11-20T06:35:23;27.30;;;19.10;;
15929;SDS011;8064;51.142;4.780;2022-11-20T06:37:49;29.83;;;20.90;;
15929;SDS011;8064;51.142;4.780;2022-11-20T06:40:14;30.13;;;21.43;;
15929;SDS011;8064;51.142;4.780;2022-11-20T06:42:40;26.87;;;21.00;;
15929;SDS011;8064;51.142;4.780;2022-11-20T06:45:06;30.97;;;20.83;;
15929;SDS011;8064;51.142;4.780;2022-11-20T06:47:32;29.50;;;21.03;;
15929;SDS011;8064;51.142;4.780;2022-11-20T06:49:58;29.30;;;20.37;;
15929;SDS011;8064;51.142;4.780;2022-11-20T06:52:24;29.07;;;20.43;;
15929;SDS011;8064;51.142;4.780;2022-11-20T06:54:49;28.67;;;21.17;;
15929;SDS011;8064;51.142;4.780;2022-11-20T06:57:15;28.73;;;20.73;;
15929;SDS011;8064;51.142;4.780;2022-11-20T06:59:41;28.50;;;19.93;;
15929;SDS011;8064;51.142;4.780;2022-11-20T07:02:13;28.00;;;19.77;;
15929;SDS011;8064;51.142;4.780;2022-11-20T07:04:38;27.27;;;20.43;;
15929;SDS011;8064;51.142;4.780;2022-11-20T07:07:04;30.97;;;21.13;;
15929;SDS011;8064;51.142;4.780;2022-11-20T07:09:31;31.37;;;19.87;;
15929;SDS011;8064;51.142;4.780;2022-11-20T07:11:58;29.70;;;19.37;;
15929;SDS011;8064;51.142;4.780;2022-11-20T07:14:24;29.40;;;20.00;;
15929;SDS011;8064;51.142;4.780;2022-11-20T07:16:49;26.90;;;19.47;;
15929;SDS011;8064;51.142;4.780;2022-11-20T07:19:15;29.00;;;20.33;;
15929;SDS011;8064;51.142;4.780;2022-11-20T07:21:41;28.23;;;19.20;;
15929;SDS011;8064;51.142;4.780;2022-11-20T07:24:06;27.40;;;18.57;;
15929;SDS011;8064;51.142;4.780;2022-11-20T07:26:32;26.03;;;18.70;;
15929;SDS011;8064;51.142;4.780;2022-11-20T07:28:58;25.30;;;18.73;;
15929;SDS011;8064;51.142;4.780;2022-11-20T07:31:23;27.83;;;19.30;;
15929;SDS011;8064;51.142;4.780;2022-11-20T07:33:49;29.20;;;19.50;;
15929;SDS011;8064;51.142;4.780;2022-11-20T07:36:15;26.93;;;19.20;;
15929;SDS011;8064;51.142;4.780;2022-11-20T07:38:41;28.50;;;20.37;;
15929;SDS011;8064;51.142;4.780;2022-11-20T07:41:06;27.37;;;19.43;;
15929;SDS011;8064;51.142;4.780;2022-11-20T07:43:32;26.93;;;19.23;;
15929;SDS011;8064;51.142;4.780;2022-11-20T07:45:58;30.57;;;19.53;;
15929;SDS011;8064;51.142;4.780;2022-11-20T07:48:24;28.33;;;19.30;;
15929;SDS011;8064;51.142;4.780;2022-11-20T07:50:56;28.67;;;18.43;;
15929;SDS011;8064;51.142;4.780;2022-11-20T07:53:23;26.47;;;19.60;;
15929;SDS011;8064;51.142;4.780;2022-11-20T07:55:49;27.97;;;18.80;;
15929;SDS011;8064;51.142;4.780;2022-11-20T07:58:17;29.60;;;19.57;;
15929;SDS011;8064;51.142;4.780;2022-11-20T08:00:44;31.83;;;19.57;;
15929;SDS011;8064;51.142;4.780;2022-11-20T08:03:10;31.73;;;19.97;;
15929;SDS011;8064;51.142;4.780;2022-11-20T08:05:36;28.27;;;19.57;;
15929;SDS011;8064;51.142;4.780;2022-11-20T08:08:02;29.67;;;19.13;;
15929;SDS011;8064;51.142;4.780;2022-11-20T08:10:28;29.87;;;19.43;;
15929;SDS011;8064;51.142;4.780;2022-11-20T08:12:54;24.90;;;18.50;;
15929;SDS011;8064;51.142;4.780;2022-11-20T08:15:40;26.57;;;17.70;;
15929;SDS011;8064;51.142;4.780;2022-11-20T08:18:06;30.87;;;20.43;;
15929;SDS011;8064;51.142;4.780;2022-11-20T08:20:35;29.97;;;19.93;;
15929;SDS011;8064;51.142;4.780;2022-11-20T08:23:07;30.90;;;19.90;;
15929;SDS011;8064;51.142;4.780;2022-11-20T08:25:33;32.60;;;19.57;;
15929;SDS011;8064;51.142;4.780;2022-11-20T08:28:00;31.83;;;20.13;;
15929;SDS011;8064;51.142;4.780;2022-11-20T08:30:28;34.53;;;19.83;;
15929;SDS011;8064;51.142;4.780;2022-11-20T08:32:54;30.47;;;19.83;;
15929;SDS011;8064;51.142;4.780;2022-11-20T08:35:26;30.03;;;19.43;;
15929;SDS011;8064;51.142;4.780;2022-11-20T08:37:51;28.67;;;19.27;;
15929;SDS011;8064;51.142;4.780;2022-11-20T08:40:17;31.20;;;20.87;;
15929;SDS011;8064;51.142;4.780;2022-11-20T08:42:49;31.53;;;19.70;;
15929;SDS011;8064;51.142;4.780;2022-11-20T08:45:16;29.40;;;19.17;;
15929;SDS011;8064;51.142;4.780;2022-11-20T08:47:42;29.87;;;19.93;;
15929;SDS011;8064;51.142;4.780;2022-11-20T08:50:09;31.37;;;20.83;;
15929;SDS011;8064;51.142;4.780;2022-11-20T08:52:36;30.70;;;20.80;;
15929;SDS011;8064;51.142;4.780;2022-11-20T08:55:03;30.47;;;20.07;;
15929;SDS011;8064;51.142;4.780;2022-11-20T08:57:33;28.87;;;19.40;;
15929;SDS011;8064;51.142;4.780;2022-11-20T09:00:05;32.03;;;19.50;;
15929;SDS011;8064;51.142;4.780;2022-11-20T09:02:32;27.00;;;18.93;;
15929;SDS011;8064;51.142;4.780;2022-11-20T09:04:57;32.07;;;19.23;;
15929;SDS011;8064;51.142;4.780;2022-11-20T09:07:23;34.17;;;21.17;;
15929;SDS011;8064;51.142;4.780;2022-11-20T09:09:49;36.90;;;21.40;;
15929;SDS011;8064;51.142;4.780;2022-11-20T09:12:15;34.73;;;21.37;;
15929;SDS011;8064;51.142;4.780;2022-11-20T09:14:41;34.67;;;21.30;;
15929;SDS011;8064;51.142;4.780;2022-11-20T09:17:06;36.67;;;21.00;;
15929;SDS011;8064;51.142;4.780;2022-11-20T09:19:33;29.87;;;19.93;;
15929;SDS011;8064;51.142;4.780;2022-11-20T09:21:59;31.37;;;19.47;;
15929;SDS011;8064;51.142;4.780;2022-11-20T09:24:25;33.80;;;20.87;;
15929;SDS011;8064;51.142;4.780;2022-11-20T09:26:51;30.07;;;19.70;;
15929;SDS011;8064;51.142;4.780;2022-11-20T09:29:17;29.70;;;19.73;;
15929;SDS011;8064;51.142;4.780;2022-11-20T09:31:43;34.40;;;21.03;;
15929;SDS011;8064;51.142;4.780;2022-11-20T09:34:09;34.60;;;21.00;;
15929;SDS011;8064;51.142;4.780;2022-11-20T09:36:35;33.87;;;20.30;;
15929;SDS011;8064;51.142;4.780;2022-11-20T09:39:01;34.53;;;20.50;;
15929;SDS011;8064;51.142;4.780;2022-11-20T09:46:55;33.43;;;21.10;;
15929;SDS011;8064;51.142;4.780;2022-11-20T09:49:32;35.87;;;21.63;;
15929;SDS011;8064;51.142;4.780;2022-11-20T09:54:49;34.73;;;20.67;;
15929;SDS011;8064;51.142;4.780;2022-11-20T09:57:21;37.27;;;22.30;;
15929;SDS011;8064;51.142;4.780;2022-11-20T09:59:52;41.20;;;26.10;;
15929;SDS011;8064;51.142;4.780;2022-11-20T10:02:28;43.13;;;26.80;;
15929;SDS011;8064;51.142;4.780;2022-11-20T10:05:08;34.47;;;21.47;;
15929;SDS011;8064;51.142;4.780;2022-11-20T10:10:40;40.03;;;24.97;;
15929;SDS011;8064;51.142;4.780;2022-11-20T10:16:21;50.27;;;24.60;;
15929;SDS011;8064;51.142;4.780;2022-11-20T10:24:52;41.97;;;23.47;;
15929;SDS011;8064;51.142;4.780;2022-11-20T10:30:29;45.27;;;22.70;;
15929;SDS011;8064;51.142;4.780;2022-11-20T10:33:03;43.00;;;23.17;;
15929;SDS011;8064;51.142;4.780;2022-11-20T10:35:39;47.40;;;22.47;;
15929;SDS011;8064;51.142;4.780;2022-11-20T10:38:16;48.37;;;22.50;;
15929;SDS011;8064;51.142;4.780;2022-11-20T10:40:57;47.10;;;24.10;;
15929;SDS011;8064;51.142;4.780;2022-11-20T10:43:45;45.73;;;23.87;;
15929;SDS011;8064;51.142;4.780;2022-11-20T10:46:22;44.87;;;24.57;;
15929;SDS011;8064;51.142;4.780;2022-11-20T10:48:50;43.40;;;22.77;;
15929;SDS011;8064;51.142;4.780;2022-11-20T10:51:36;48.47;;;26.23;;
15929;SDS011;8064;51.142;4.780;2022-11-20T10:57:34;44.67;;;24.03;;
15929;SDS011;8064;51.142;4.780;2022-11-20T11:00:22;45.17;;;24.03;;
15929;SDS011;8064;51.142;4.780;2022-11-20T11:02:49;50.83;;;23.77;;
15929;SDS011;8064;51.142;4.780;2022-11-20T11:07:55;52.87;;;24.50;;
15929;SDS011;8064;51.142;4.780;2022-11-20T11:10:34;47.00;;;22.53;;
15929;SDS011;8064;51.142;4.780;2022-11-20T11:13:24;47.70;;;24.83;;
15929;SDS011;8064;51.142;4.780;2022-11-20T11:15:52;43.30;;;23.23;;
15929;SDS011;8064;51.142;4.780;2022-11-20T11:18:28;50.27;;;24.17;;
15929;SDS011;8064;51.142;4.780;2022-11-20T11:21:02;48.97;;;23.97;;
15929;SDS011;8064;51.142;4.780;2022-11-20T11:23:34;45.40;;;23.80;;
15929;SDS011;8064;51.142;4.780;2022-11-20T11:26:05;44.43;;;23.20;;
15929;SDS011;8064;51.142;4.780;2022-11-20T11:28:32;48.00;;;24.57;;
15929;SDS011;8064;51.142;4.780;2022-11-20T11:30:59;42.33;;;21.57;;
15929;SDS011;8064;51.142;4.780;2022-11-20T11:33:25;45.33;;;22.60;;
15929;SDS011;8064;51.142;4.780;2022-11-20T11:35:56;42.70;;;22.23;;
15929;SDS011;8064;51.142;4.780;2022-11-20T11:40:56;43.33;;;22.80;;
15929;SDS011;8064;51.142;4.780;2022-11-20T11:43:27;42.43;;;23.47;;
15929;SDS011;8064;51.142;4.780;2022-11-20T11:46:23;46.20;;;22.57;;
15929;SDS011;8064;51.142;4.780;2022-11-20T11:48:57;41.37;;;22.37;;
15929;SDS011;8064;51.142;4.780;2022-11-20T11:51:28;46.33;;;24.23;;
15929;SDS011;8064;51.142;4.780;2022-11-20T11:54:02;43.33;;;21.33;;
15929;SDS011;8064;51.142;4.780;2022-11-20T11:56:39;39.33;;;20.77;;
15929;SDS011;8064;51.142;4.780;2022-11-20T11:59:06;41.03;;;21.30;;
15929;SDS011;8064;51.142;4.780;2022-11-20T12:04:24;42.90;;;22.37;;
15929;SDS011;8064;51.142;4.780;2022-11-20T12:07:15;42.73;;;21.47;;
15929;SDS011;8064;51.142;4.780;2022-11-20T12:09:51;42.33;;;21.07;;
15929;SDS011;8064;51.142;4.780;2022-11-20T12:12:23;41.60;;;22.43;;
15929;SDS011;8064;51.142;4.780;2022-11-20T12:14:55;39.47;;;21.10;;
15929;SDS011;8064;51.142;4.780;2022-11-20T12:17:22;41.40;;;20.17;;
15929;SDS011;8064;51.142;4.780;2022-11-20T12:19:47;36.73;;;20.43;;
15929;SDS011;8064;51.142;4.780;2022-11-20T12:24:43;36.83;;;20.43;;
15929;SDS011;8064;51.142;4.780;2022-11-20T12:30:27;30.20;;;17.57;;
15929;SDS011;8064;51.142;4.780;2022-11-20T12:41:20;37.20;;;20.10;;
15929;SDS011;8064;51.142;4.780;2022-11-20T12:58:48;30.57;;;16.37;;
15929;SDS011;8064;51.142;4.780;2022-11-20T13:01:27;25.57;;;14.80;;
15929;SDS011;8064;51.142;4.780;2022-11-20T13:07:10;22.27;;;12.63;;
15929;SDS011;8064;51.142;4.780;2022-11-20T13:09:44;18.67;;;8.00;;
15929;SDS011;8064;51.142;4.780;2022-11-20T13:12:24;13.70;;;7.13;;
15929;SDS011;8064;51.142;4.780;2022-11-20T13:17:38;9.00;;;4.30;;
15929;SDS011;8064;51.142;4.780;2022-11-20T13:20:26;8.03;;;3.77;;
15929;SDS011;8064;51.142;4.780;2022-11-20T13:22:54;7.30;;;3.37;;
15929;SDS011;8064;51.142;4.780;2022-11-20T13:25:22;4.23;;;2.77;;
15929;SDS011;8064;51.142;4.780;2022-11-20T13:27:51;12.30;;;4.20;;
15929;SDS011;8064;51.142;4.780;2022-11-20T13:30:22;6.10;;;2.30;;
15929;SDS011;8064;51.142;4.780;2022-11-20T13:32:53;6.63;;;3.20;;
15929;SDS011;8064;51.142;4.780;2022-11-20T13:38:02;4.90;;;2.57;;
15929;SDS011;8064;51.142;4.780;2022-11-20T13:40:32;6.63;;;2.10;;
15929;SDS011;8064;51.142;4.780;2022-11-20T13:46:05;6.60;;;2.67;;
15929;SDS011;8064;51.142;4.780;2022-11-20T13:48:32;6.97;;;2.80;;
15929;SDS011;8064;51.142;4.780;2022-11-20T13:53:41;5.27;;;2.50;;
15929;SDS011;8064;51.142;4.780;2022-11-20T14:02:00;6.27;;;2.30;;
15929;SDS011;8064;51.142;4.780;2022-11-20T14:04:27;5.10;;;2.23;;
15929;SDS011;8064;51.142;4.780;2022-11-20T14:06:57;6.37;;;2.40;;
15929;SDS011;8064;51.142;4.780;2022-11-20T14:09:28;8.07;;;2.50;;
15929;SDS011;8064;51.142;4.780;2022-11-20T14:11:55;5.80;;;2.37;;
15929;SDS011;8064;51.142;4.780;2022-11-20T14:14:22;6.30;;;2.20;;
15929;SDS011;8064;51.142;4.780;2022-11-20T14:16:50;4.70;;;2.70;;
15929;SDS011;8064;51.142;4.780;2022-11-20T14:21:46;6.77;;;2.70;;
15929;SDS011;8064;51.142;4.780;2022-11-20T14:24:13;6.67;;;2.97;;
15929;SDS011;8064;51.142;4.780;2022-11-20T14:26:43;5.60;;;2.67;;
15929;SDS011;8064;51.142;4.780;2022-11-20T14:29:14;5.73;;;2.50;;
15929;SDS011;8064;51.142;4.780;2022-11-20T14:31:43;7.27;;;2.63;;
15929;SDS011;8064;51.142;4.780;2022-11-20T14:34:20;5.17;;;2.77;;
15929;SDS011;8064;51.142;4.780;2022-11-20T14:36:55;8.23;;;3.07;;
15929;SDS011;8064;51.142;4.780;2022-11-20T14:39:31;6.00;;;3.27;;
15929;SDS011;8064;51.142;4.780;2022-11-20T14:42:15;4.17;;;2.77;;
15929;SDS011;8064;51.142;4.780;2022-11-20T14:44:49;5.93;;;3.03;;
15929;SDS011;8064;51.142;4.780;2022-11-20T14:47:20;6.87;;;2.87;;
15929;SDS011;8064;51.142;4.780;2022-11-20T14:49:48;8.20;;;2.90;;
15929;SDS011;8064;51.142;4.780;2022-11-20T14:52:25;2.90;;;2.33;;
15929;SDS011;8064;51.142;4.780;2022-11-20T14:54:56;6.97;;;2.87;;
15929;SDS011;8064;51.142;4.780;2022-11-20T14:57:29;5.43;;;2.50;;
15929;SDS011;8064;51.142;4.780;2022-11-20T15:02:46;3.20;;;2.07;;
15929;SDS011;8064;51.142;4.780;2022-11-20T15:05:14;3.70;;;2.40;;
15929;SDS011;8064;51.142;4.780;2022-11-20T15:07:42;4.57;;;2.30;;
15929;SDS011;8064;51.142;4.780;2022-11-20T15:10:19;3.73;;;2.33;;
15929;SDS011;8064;51.142;4.780;2022-11-20T15:12:47;2.80;;;1.97;;
15929;SDS011;8064;51.142;4.780;2022-11-20T15:17:58;4.07;;;2.40;;
15929;SDS011;8064;51.142;4.780;2022-11-20T15:20:25;3.93;;;2.33;;
15929;SDS011;8064;51.142;4.780;2022-11-20T15:22:56;4.07;;;2.27;;
15929;SDS011;8064;51.142;4.780;2022-11-20T15:25:22;3.30;;;2.27;;
15929;SDS011;8064;51.142;4.780;2022-11-20T15:27:50;4.07;;;2.40;;
15929;SDS011;8064;51.142;4.780;2022-11-20T15:30:21;3.57;;;2.00;;
15929;SDS011;8064;51.142;4.780;2022-11-20T15:32:47;4.47;;;2.00;;
15929;SDS011;8064;51.142;4.780;2022-11-20T15:35:14;2.33;;;2.03;;
15929;SDS011;8064;51.142;4.780;2022-11-20T15:37:40;3.00;;;2.23;;
15929;SDS011;8064;51.142;4.780;2022-11-20T15:40:07;4.00;;;2.40;;
15929;SDS011;8064;51.142;4.780;2022-11-20T15:42:34;3.83;;;2.90;;
15929;SDS011;8064;51.142;4.780;2022-11-20T15:45:00;2.63;;;2.37;;
15929;SDS011;8064;51.142;4.780;2022-11-20T15:47:32;6.80;;;2.63;;
15929;SDS011;8064;51.142;4.780;2022-11-20T15:50:01;5.57;;;3.00;;
15929;SDS011;8064;51.142;4.780;2022-11-20T15:52:27;5.30;;;3.13;;
15929;SDS011;8064;51.142;4.780;2022-11-20T15:54:52;5.17;;;3.30;;
15929;SDS011;8064;51.142;4.780;2022-11-20T15:57:18;3.40;;;3.10;;
15929;SDS011;8064;51.142;4.780;2022-11-20T15:59:44;4.20;;;3.27;;
15929;SDS011;8064;51.142;4.780;2022-11-20T16:02:16;4.90;;;3.70;;
15929;SDS011;8064;51.142;4.780;2022-11-20T16:04:41;4.57;;;3.57;;
15929;SDS011;8064;51.142;4.780;2022-11-20T16:07:07;3.70;;;3.30;;
15929;SDS011;8064;51.142;4.780;2022-11-20T16:09:33;4.23;;;3.40;;
15929;SDS011;8064;51.142;4.780;2022-11-20T16:11:59;4.10;;;3.70;;
15929;SDS011;8064;51.142;4.780;2022-11-20T16:14:25;6.93;;;3.80;;
15929;SDS011;8064;51.142;4.780;2022-11-20T16:17:10;6.20;;;3.60;;
15929;SDS011;8064;51.142;4.780;2022-11-20T16:19:36;4.90;;;3.47;;
15929;SDS011;8064;51.142;4.780;2022-11-20T16:22:02;6.33;;;4.10;;